sensor_id;sensor_type;location;lat;lon;timestamp;pressure;altitude;pressure_sealevel;temperature;humidity
24962;BME280;12992;50.884;13.668;2023-04-30T00:02:18;97699.19;;;9.30;100.00
24962;BME280;12992;50.884;13.668;2023-04-30T00:04:43;97701.88;;;9.42;100.00
24962;BME280;12992;50.884;13.668;2023-04-30T00:07:09;97707.44;;;9.47;100.00
24962;BME280;12992;50.884;13.668;2023-04-30T00:09:34;97699.53;;;9.46;100.00
24962;BME280;12992;50.884;13.668;2023-04-30T00:12:00;97705.06;;;9.51;100.00
24962;BME280;12992;50.884;13.668;2023-04-30T00:14:25;97707.69;;;9.46;100.00
24962;BME280;12992;50.884;13.668;2023-04-30T00:16:50;97706.84;;;9.45;100.00
24962;BME280;12992;50.884;13.668;2023-04-30T00:19:16;97712.06;;;9.47;100.00
24962;BME280;12992;50.884;13.668;2023-04-30T00:21:41;97709.78;;;9.44;100.00
24962;BME280;12992;50.884;13.668;2023-04-30T00:24:06;97714.41;;;9.43;100.00
24962;BME280;12992;50.884;13.668;2023-04-30T00:26:32;97716.22;;;9.38;100.00
24962;BME280;12992;50.884;13.668;2023-04-30T00:28:57;97719.38;;;9.34;100.00
24962;BME280;12992;50.884;13.668;2023-04-30T00:31:23;97708.19;;;9.31;100.00
24962;BME280;12992;50.884;13.668;2023-04-30T00:33:48;97718.22;;;9.30;100.00
24962;BME280;12992;50.884;13.668;2023-04-30T00:36:13;97722.09;;;9.34;100.00
24962;BME280;12992;50.884;13.668;2023-04-30T00:38:39;97713.84;;;9.29;100.00
24962;BME280;12992;50.884;13.668;2023-04-30T00:41:04;97715.59;;;9.35;100.00
24962;BME280;12992;50.884;13.668;2023-04-30T00:43:30;97703.94;;;9.23;100.00
24962;BME280;12992;50.884;13.668;2023-04-30T00:45:56;97705.22;;;9.32;100.00
24962;BME280;12992;50.884;13.668;2023-04-30T00:48:23;97712.78;;;9.30;100.00
24962;BME280;12992;50.884;13.668;2023-04-30T00:50:48;97707.34;;;9.30;100.00
24962;BME280;12992;50.884;13.668;2023-04-30T00:53:15;97707.81;;;9.27;100.00
24962;BME280;12992;50.884;13.668;2023-04-30T00:55:41;97708.88;;;9.26;100.00
24962;BME280;12992;50.884;13.668;2023-04-30T00:58:08;97704.88;;;9.17;100.00
24962;BME280;12992;50.884;13.668;2023-04-30T01:00:33;97708.19;;;9.19;100.00
24962;BME280;12992;50.884;13.668;2023-04-30T01:02:59;97708.31;;;9.13;100.00
24962;BME280;12992;50.884;13.668;2023-04-30T01:05:24;97720.72;;;9.20;100.00
24962;BME280;12992;50.884;13.668;2023-04-30T01:07:50;97723.88;;;9.17;100.00
24962;BME280;12992;50.884;13.668;2023-04-30T01:10:17;97712.91;;;9.12;100.00
24962;BME280;12992;50.884;13.668;2023-04-30T01:15:35;97712.78;;;9.07;100.00
24962;BME280;12992;50.884;13.668;2023-04-30T01:18:17;97717.53;;;9.12;100.00
24962;BME280;12992;50.884;13.668;2023-04-30T01:20:53;97719.75;;;9.15;100.00
24962;BME280;12992;50.884;13.668;2023-04-30T01:26:12;97715.06;;;9.10;100.00
24962;BME280;12992;50.884;13.668;2023-04-30T01:28:39;97713.72;;;9.01;100.00
24962;BME280;12992;50.884;13.668;2023-04-30T01:31:13;97711.25;;;8.99;100.00
24962;BME280;12992;50.884;13.668;2023-04-30T01:33:39;97716.91;;;8.98;100.00
24962;BME280;12992;50.884;13.668;2023-04-30T01:36:12;97705.00;;;8.87;100.00
24962;BME280;12992;50.884;13.668;2023-04-30T01:38:55;97707.22;;;8.78;100.00
24962;BME280;12992;50.884;13.668;2023-04-30T01:41:39;97688.81;;;8.57;100.00
24962;BME280;12992;50.884;13.668;2023-04-30T01:46:39;97707.53;;;8.47;100.00
24962;BME280;12992;50.884;13.668;2023-04-30T01:49:41;97709.31;;;8.41;100.00
24962;BME280;12992;50.884;13.668;2023-04-30T01:52:28;97713.00;;;8.29;100.00
24962;BME280;12992;50.884;13.668;2023-04-30T01:55:08;97714.75;;;8.23;100.00
24962;BME280;12992;50.884;13.668;2023-04-30T01:57:38;97713.88;;;8.11;100.00
24962;BME280;12992;50.884;13.668;2023-04-30T02:00:07;97716.31;;;8.01;100.00
24962;BME280;12992;50.884;13.668;2023-04-30T02:02:38;97724.09;;;7.97;100.00
24962;BME280;12992;50.884;13.668;2023-04-30T02:05:04;97729.75;;;7.95;100.00
24962;BME280;12992;50.884;13.668;2023-04-30T02:07:40;97724.03;;;7.85;100.00
24962;BME280;12992;50.884;13.668;2023-04-30T02:10:07;97732.47;;;7.77;100.00
24962;BME280;12992;50.884;13.668;2023-04-30T02:12:33;97739.19;;;7.75;100.00
24962;BME280;12992;50.884;13.668;2023-04-30T02:14:58;97745.53;;;7.69;100.00
24962;BME280;12992;50.884;13.668;2023-04-30T02:17:24;97753.28;;;7.65;100.00
24962;BME280;12992;50.884;13.668;2023-04-30T02:19:49;97753.13;;;7.60;100.00
24962;BME280;12992;50.884;13.668;2023-04-30T02:22:14;97762.69;;;7.62;100.00
24962;BME280;12992;50.884;13.668;2023-04-30T02:24:40;97765.19;;;7.64;100.00
24962;BME280;12992;50.884;13.668;2023-04-30T02:27:05;97781.22;;;7.65;100.00
24962;BME280;12992;50.884;13.668;2023-04-30T02:29:30;97786.94;;;7.76;100.00
24962;BME280;12992;50.884;13.668;2023-04-30T02:31:57;97793.19;;;7.76;100.00
24962;BME280;12992;50.884;13.668;2023-04-30T02:34:22;97793.69;;;7.85;100.00
24962;BME280;12992;50.884;13.668;2023-04-30T02:36:48;97797.03;;;7.87;100.00
24962;BME280;12992;50.884;13.668;2023-04-30T02:39:13;97804.00;;;7.94;100.00
24962;BME280;12992;50.884;13.668;2023-04-30T02:41:38;97811.94;;;7.96;100.00
24962;BME280;12992;50.884;13.668;2023-04-30T02:44:04;97805.69;;;7.95;100.00
24962;BME280;12992;50.884;13.668;2023-04-30T02:46:29;97796.56;;;7.90;100.00
24962;BME280;12992;50.884;13.668;2023-04-30T02:48:54;97789.09;;;7.85;100.00
24962;BME280;12992;50.884;13.668;2023-04-30T02:51:20;97795.97;;;7.88;100.00
24962;BME280;12992;50.884;13.668;2023-04-30T02:53:45;97794.31;;;7.87;100.00
24962;BME280;12992;50.884;13.668;2023-04-30T02:56:10;97786.94;;;7.76;100.00
24962;BME280;12992;50.884;13.668;2023-04-30T02:58:36;97788.50;;;7.65;100.00
24962;BME280;12992;50.884;13.668;2023-04-30T03:01:01;97771.25;;;7.41;100.00
24962;BME280;12992;50.884;13.668;2023-04-30T03:03:26;97769.81;;;7.38;100.00
24962;BME280;12992;50.884;13.668;2023-04-30T03:05:52;97765.81;;;7.23;100.00
24962;BME280;12992;50.884;13.668;2023-04-30T03:08:17;97773.19;;;7.16;100.00
24962;BME280;12992;50.884;13.668;2023-04-30T03:10:42;97779.25;;;7.11;100.00
24962;BME280;12992;50.884;13.668;2023-04-30T03:13:08;97778.72;;;7.02;100.00
24962;BME280;12992;50.884;13.668;2023-04-30T03:15:33;97775.69;;;6.92;100.00
24962;BME280;12992;50.884;13.668;2023-04-30T03:17:58;97779.03;;;6.88;100.00
24962;BME280;12992;50.884;13.668;2023-04-30T03:20:24;97776.41;;;6.81;100.00
24962;BME280;12992;50.884;13.668;2023-04-30T03:22:49;97786.00;;;6.77;100.00
24962;BME280;12992;50.884;13.668;2023-04-30T03:25:14;97787.94;;;6.70;100.00
24962;BME280;12992;50.884;13.668;2023-04-30T03:27:40;97795.06;;;6.64;100.00
24962;BME280;12992;50.884;13.668;2023-04-30T03:30:06;97796.94;;;6.64;100.00
24962;BME280;12992;50.884;13.668;2023-04-30T03:32:31;97793.44;;;6.57;100.00
24962;BME280;12992;50.884;13.668;2023-04-30T03:34:57;97795.09;;;6.58;100.00
24962;BME280;12992;50.884;13.668;2023-04-30T03:37:22;97811.13;;;6.59;100.00
24962;BME280;12992;50.884;13.668;2023-04-30T03:39:48;97812.63;;;6.55;100.00
24962;BME280;12992;50.884;13.668;2023-04-30T03:42:13;97824.88;;;6.58;100.00
24962;BME280;12992;50.884;13.668;2023-04-30T03:44:38;97823.63;;;6.53;100.00
24962;BME280;12992;50.884;13.668;2023-04-30T03:47:04;97826.56;;;6.52;100.00
24962;BME280;12992;50.884;13.668;2023-04-30T03:49:29;97834.25;;;6.55;100.00
24962;BME280;12992;50.884;13.668;2023-04-30T03:51:54;97843.38;;;6.61;100.00
24962;BME280;12992;50.884;13.668;2023-04-30T03:54:20;97856.03;;;6.67;100.00
24962;BME280;12992;50.884;13.668;2023-04-30T03:56:45;97858.06;;;6.71;100.00
24962;BME280;12992;50.884;13.668;2023-04-30T03:59:10;97852.50;;;6.66;100.00
24962;BME280;12992;50.884;13.668;2023-04-30T04:01:36;97868.06;;;6.71;100.00
24962;BME280;12992;50.884;13.668;2023-04-30T04:04:01;97869.31;;;6.75;100.00
24962;BME280;12992;50.884;13.668;2023-04-30T04:06:27;97867.66;;;6.74;100.00
24962;BME280;12992;50.884;13.668;2023-04-30T04:08:53;97870.38;;;6.74;100.00
24962;BME280;12992;50.884;13.668;2023-04-30T04:11:18;97875.19;;;6.72;100.00
24962;BME280;12992;50.884;13.668;2023-04-30T04:13:43;97880.97;;;6.75;100.00
24962;BME280;12992;50.884;13.668;2023-04-30T04:16:08;97890.13;;;6.81;100.00
24962;BME280;12992;50.884;13.668;2023-04-30T04:18:34;97895.53;;;6.81;100.00
24962;BME280;12992;50.884;13.668;2023-04-30T04:21:00;97903.81;;;6.86;100.00
24962;BME280;12992;50.884;13.668;2023-04-30T04:23:27;97908.59;;;6.91;100.00
24962;BME280;12992;50.884;13.668;2023-04-30T04:25:53;97913.94;;;6.97;100.00
24962;BME280;12992;50.884;13.668;2023-04-30T04:28:19;97913.53;;;7.00;100.00
24962;BME280;12992;50.884;13.668;2023-04-30T04:30:44;97924.66;;;7.17;100.00
24962;BME280;12992;50.884;13.668;2023-04-30T04:33:10;97925.63;;;7.23;100.00
24962;BME280;12992;50.884;13.668;2023-04-30T04:35:36;97933.09;;;7.34;100.00
24962;BME280;12992;50.884;13.668;2023-04-30T04:38:01;97935.06;;;7.45;100.00
24962;BME280;12992;50.884;13.668;2023-04-30T04:40:27;97932.09;;;7.53;100.00
24962;BME280;12992;50.884;13.668;2023-04-30T04:42:53;97928.13;;;7.49;100.00
24962;BME280;12992;50.884;13.668;2023-04-30T04:45:19;97924.56;;;7.55;100.00
24962;BME280;12992;50.884;13.668;2023-04-30T04:47:46;97919.72;;;7.57;100.00
24962;BME280;12992;50.884;13.668;2023-04-30T04:50:12;97931.53;;;7.70;100.00
24962;BME280;12992;50.884;13.668;2023-04-30T04:52:38;97919.31;;;7.60;100.00
24962;BME280;12992;50.884;13.668;2023-04-30T04:55:04;97934.38;;;7.75;100.00
24962;BME280;12992;50.884;13.668;2023-04-30T04:57:30;97922.34;;;7.71;100.00
24962;BME280;12992;50.884;13.668;2023-04-30T04:59:55;97916.31;;;7.69;100.00
24962;BME280;12992;50.884;13.668;2023-04-30T05:02:21;97924.81;;;7.72;100.00
24962;BME280;12992;50.884;13.668;2023-04-30T05:04:49;97911.59;;;7.57;100.00
24962;BME280;12992;50.884;13.668;2023-04-30T05:07:17;97917.44;;;7.61;100.00
24962;BME280;12992;50.884;13.668;2023-04-30T05:09:46;97914.53;;;7.56;100.00
24962;BME280;12992;50.884;13.668;2023-04-30T05:12:12;97917.53;;;7.48;100.00
24962;BME280;12992;50.884;13.668;2023-04-30T05:14:38;97916.69;;;7.47;100.00
24962;BME280;12992;50.884;13.668;2023-04-30T05:17:03;97922.91;;;7.54;100.00
24962;BME280;12992;50.884;13.668;2023-04-30T05:19:28;97923.72;;;7.55;100.00
24962;BME280;12992;50.884;13.668;2023-04-30T05:21:54;97927.72;;;7.52;100.00
24962;BME280;12992;50.884;13.668;2023-04-30T05:24:19;97930.84;;;7.49;100.00
24962;BME280;12992;50.884;13.668;2023-04-30T05:26:44;97936.00;;;7.57;100.00
24962;BME280;12992;50.884;13.668;2023-04-30T05:29:10;97941.97;;;7.66;100.00
24962;BME280;12992;50.884;13.668;2023-04-30T05:31:36;97935.66;;;7.47;100.00
24962;BME280;12992;50.884;13.668;2023-04-30T05:34:01;97938.38;;;7.47;100.00
24962;BME280;12992;50.884;13.668;2023-04-30T05:36:26;97939.38;;;7.53;100.00
24962;BME280;12992;50.884;13.668;2023-04-30T05:38:53;97939.63;;;7.51;100.00
24962;BME280;12992;50.884;13.668;2023-04-30T05:41:18;97921.19;;;7.35;100.00
24962;BME280;12992;50.884;13.668;2023-04-30T05:43:43;97944.69;;;7.41;100.00
24962;BME280;12992;50.884;13.668;2023-04-30T05:46:09;97943.19;;;7.45;100.00
24962;BME280;12992;50.884;13.668;2023-04-30T05:48:34;97949.72;;;7.62;100.00
24962;BME280;12992;50.884;13.668;2023-04-30T05:50:59;97946.25;;;7.55;100.00
24962;BME280;12992;50.884;13.668;2023-04-30T05:53:25;97945.63;;;7.53;100.00
24962;BME280;12992;50.884;13.668;2023-04-30T05:55:50;97945.19;;;7.56;100.00
24962;BME280;12992;50.884;13.668;2023-04-30T05:58:15;97953.31;;;7.56;100.00
24962;BME280;12992;50.884;13.668;2023-04-30T06:00:41;97937.31;;;7.48;100.00
24962;BME280;12992;50.884;13.668;2023-04-30T06:03:06;97958.09;;;7.61;100.00
24962;BME280;12992;50.884;13.668;2023-04-30T06:05:32;97964.13;;;7.63;100.00
24962;BME280;12992;50.884;13.668;2023-04-30T06:07:57;97967.38;;;7.72;100.00
24962;BME280;12992;50.884;13.668;2023-04-30T06:10:22;97967.94;;;7.80;100.00
24962;BME280;12992;50.884;13.668;2023-04-30T06:12:48;97966.28;;;7.79;100.00
24962;BME280;12992;50.884;13.668;2023-04-30T06:15:13;97957.72;;;7.76;100.00
24962;BME280;12992;50.884;13.668;2023-04-30T06:17:38;97952.00;;;7.65;100.00
24962;BME280;12992;50.884;13.668;2023-04-30T06:20:05;97961.91;;;7.78;100.00
24962;BME280;12992;50.884;13.668;2023-04-30T06:22:32;97972.53;;;7.80;100.00
24962;BME280;12992;50.884;13.668;2023-04-30T06:24:57;97967.31;;;7.78;100.00
24962;BME280;12992;50.884;13.668;2023-04-30T06:27:24;97994.25;;;7.98;100.00
24962;BME280;12992;50.884;13.668;2023-04-30T06:29:52;98001.97;;;8.19;100.00
24962;BME280;12992;50.884;13.668;2023-04-30T06:32:17;97990.97;;;8.14;100.00
24962;BME280;12992;50.884;13.668;2023-04-30T06:34:42;97988.34;;;8.26;100.00
24962;BME280;12992;50.884;13.668;2023-04-30T06:37:08;97980.38;;;8.31;100.00
24962;BME280;12992;50.884;13.668;2023-04-30T06:39:33;97964.69;;;8.33;100.00
24962;BME280;12992;50.884;13.668;2023-04-30T06:41:58;97975.94;;;8.37;100.00
24962;BME280;12992;50.884;13.668;2023-04-30T06:44:26;97975.13;;;8.36;100.00
24962;BME280;12992;50.884;13.668;2023-04-30T06:46:51;97984.63;;;8.45;100.00
24962;BME280;12992;50.884;13.668;2023-04-30T06:49:17;98003.56;;;8.70;100.00
24962;BME280;12992;50.884;13.668;2023-04-30T06:51:42;98002.25;;;8.73;100.00
24962;BME280;12992;50.884;13.668;2023-04-30T06:54:07;98016.22;;;8.95;100.00
24962;BME280;12992;50.884;13.668;2023-04-30T06:56:33;98007.38;;;8.99;100.00
24962;BME280;12992;50.884;13.668;2023-04-30T06:58:58;98004.41;;;9.19;100.00
24962;BME280;12992;50.884;13.668;2023-04-30T07:01:23;98005.00;;;9.21;100.00
24962;BME280;12992;50.884;13.668;2023-04-30T07:03:48;97976.81;;;9.04;100.00
24962;BME280;12992;50.884;13.668;2023-04-30T07:06:15;97969.66;;;8.91;100.00
24962;BME280;12992;50.884;13.668;2023-04-30T07:08:40;97976.06;;;8.97;100.00
24962;BME280;12992;50.884;13.668;2023-04-30T07:11:08;97969.97;;;8.83;100.00
24962;BME280;12992;50.884;13.668;2023-04-30T07:13:33;97973.31;;;8.85;100.00
24962;BME280;12992;50.884;13.668;2023-04-30T07:15:58;97966.28;;;8.77;100.00
24962;BME280;12992;50.884;13.668;2023-04-30T07:18:24;97969.06;;;8.71;100.00
24962;BME280;12992;50.884;13.668;2023-04-30T07:20:49;97994.72;;;8.93;100.00
24962;BME280;12992;50.884;13.668;2023-04-30T07:23:14;97987.41;;;8.94;100.00
24962;BME280;12992;50.884;13.668;2023-04-30T07:25:40;97988.00;;;8.96;100.00
24962;BME280;12992;50.884;13.668;2023-04-30T07:28:05;97947.38;;;8.52;100.00
24962;BME280;12992;50.884;13.668;2023-04-30T07:30:31;97944.88;;;8.33;100.00
24962;BME280;12992;50.884;13.668;2023-04-30T07:32:56;97961.25;;;8.44;100.00
24962;BME280;12992;50.884;13.668;2023-04-30T07:35:21;97986.78;;;8.73;100.00
24962;BME280;12992;50.884;13.668;2023-04-30T07:37:46;97985.75;;;8.93;100.00
24962;BME280;12992;50.884;13.668;2023-04-30T07:40:12;97989.88;;;8.95;100.00
24962;BME280;12992;50.884;13.668;2023-04-30T07:42:40;97980.63;;;8.85;100.00
24962;BME280;12992;50.884;13.668;2023-04-30T07:45:06;97966.66;;;8.81;100.00
24962;BME280;12992;50.884;13.668;2023-04-30T07:47:32;97946.63;;;8.45;100.00
24962;BME280;12992;50.884;13.668;2023-04-30T07:49:57;97975.63;;;8.63;100.00
24962;BME280;12992;50.884;13.668;2023-04-30T07:52:22;97991.25;;;8.86;100.00
24962;BME280;12992;50.884;13.668;2023-04-30T07:54:48;97994.25;;;8.96;100.00
24962;BME280;12992;50.884;13.668;2023-04-30T07:57:14;97977.34;;;8.94;100.00
24962;BME280;12992;50.884;13.668;2023-04-30T07:59:39;97966.28;;;8.77;100.00
24962;BME280;12992;50.884;13.668;2023-04-30T08:02:04;97966.06;;;8.79;100.00
24962;BME280;12992;50.884;13.668;2023-04-30T08:04:30;97969.25;;;8.76;100.00
24962;BME280;12992;50.884;13.668;2023-04-30T08:06:55;97999.59;;;9.03;100.00
24962;BME280;12992;50.884;13.668;2023-04-30T08:09:21;97991.56;;;9.08;100.00
24962;BME280;12992;50.884;13.668;2023-04-30T08:11:46;97992.63;;;9.07;100.00
24962;BME280;12992;50.884;13.668;2023-04-30T08:14:11;98005.44;;;9.18;100.00
24962;BME280;12992;50.884;13.668;2023-04-30T08:16:36;98017.31;;;9.35;100.00
24962;BME280;12992;50.884;13.668;2023-04-30T08:19:02;98040.72;;;9.67;100.00
24962;BME280;12992;50.884;13.668;2023-04-30T08:21:28;98040.88;;;9.83;100.00
24962;BME280;12992;50.884;13.668;2023-04-30T08:23:53;98049.69;;;10.09;100.00
24962;BME280;12992;50.884;13.668;2023-04-30T08:26:19;98018.41;;;9.88;100.00
24962;BME280;12992;50.884;13.668;2023-04-30T08:28:45;98090.47;;;10.62;100.00
24962;BME280;12992;50.884;13.668;2023-04-30T08:31:11;98106.19;;;11.47;100.00
24962;BME280;12992;50.884;13.668;2023-04-30T08:33:36;98061.91;;;11.57;100.00
24962;BME280;12992;50.884;13.668;2023-04-30T08:36:02;97985.69;;;10.93;100.00
24962;BME280;12992;50.884;13.668;2023-04-30T08:38:27;97995.91;;;10.86;100.00
24962;BME280;12992;50.884;13.668;2023-04-30T08:41:19;98000.81;;;10.72;100.00
24962;BME280;12992;50.884;13.668;2023-04-30T08:43:50;98050.38;;;11.38;100.00
24962;BME280;12992;50.884;13.668;2023-04-30T08:46:17;98074.44;;;11.98;100.00
24962;BME280;12992;50.884;13.668;2023-04-30T08:48:42;98034.59;;;11.69;100.00
24962;BME280;12992;50.884;13.668;2023-04-30T08:51:08;98012.63;;;11.47;100.00
24962;BME280;12992;50.884;13.668;2023-04-30T08:53:35;98026.81;;;11.60;100.00
24962;BME280;12992;50.884;13.668;2023-04-30T08:56:03;98011.50;;;11.59;99.89
24962;BME280;12992;50.884;13.668;2023-04-30T08:58:28;98012.09;;;11.61;99.84
24962;BME280;12992;50.884;13.668;2023-04-30T09:00:53;97994.19;;;11.37;100.00
24962;BME280;12992;50.884;13.668;2023-04-30T09:03:19;97992.22;;;11.21;99.94
24962;BME280;12992;50.884;13.668;2023-04-30T09:05:46;98000.13;;;11.34;98.12
24962;BME280;12992;50.884;13.668;2023-04-30T09:08:16;98123.38;;;12.67;100.00
24962;BME280;12992;50.884;13.668;2023-04-30T09:10:41;98088.88;;;12.99;97.76
24962;BME280;12992;50.884;13.668;2023-04-30T09:13:08;98055.47;;;12.97;89.76
24962;BME280;12992;50.884;13.668;2023-04-30T09:15:36;98079.56;;;13.39;86.44
24962;BME280;12992;50.884;13.668;2023-04-30T09:18:10;98010.25;;;12.68;87.99
24962;BME280;12992;50.884;13.668;2023-04-30T09:20:36;98136.38;;;14.03;89.71
24962;BME280;12992;50.884;13.668;2023-04-30T09:23:07;98178.25;;;16.67;78.72
24962;BME280;12992;50.884;13.668;2023-04-30T09:25:40;98117.06;;;17.51;66.86
24962;BME280;12992;50.884;13.668;2023-04-30T09:28:10;98053.66;;;16.92;68.28
24962;BME280;12992;50.884;13.668;2023-04-30T09:30:36;97951.56;;;15.10;70.43
24962;BME280;12992;50.884;13.668;2023-04-30T09:33:02;97947.81;;;14.59;72.80
24962;BME280;12992;50.884;13.668;2023-04-30T09:35:33;97927.00;;;13.78;77.70
24962;BME280;12992;50.884;13.668;2023-04-30T09:38:00;97912.09;;;13.10;75.76
24962;BME280;12992;50.884;13.668;2023-04-30T09:40:40;97923.81;;;12.84;81.82
24962;BME280;12992;50.884;13.668;2023-04-30T09:43:06;97938.38;;;13.16;77.17
24962;BME280;12992;50.884;13.668;2023-04-30T09:45:48;98033.81;;;14.15;80.00
24962;BME280;12992;50.884;13.668;2023-04-30T09:48:16;98038.50;;;14.99;80.75
24962;BME280;12992;50.884;13.668;2023-04-30T09:50:42;97974.78;;;14.35;76.35
24962;BME280;12992;50.884;13.668;2023-04-30T09:53:10;97949.72;;;14.21;76.85
24962;BME280;12992;50.884;13.668;2023-04-30T09:55:41;97935.34;;;13.99;74.21
24962;BME280;12992;50.884;13.668;2023-04-30T09:58:08;97921.53;;;13.83;74.25
24962;BME280;12992;50.884;13.668;2023-04-30T10:00:36;97898.34;;;13.27;78.93
24962;BME280;12992;50.884;13.668;2023-04-30T10:03:07;98078.47;;;15.38;79.55
24962;BME280;12992;50.884;13.668;2023-04-30T10:05:37;98120.84;;;18.25;66.53
24962;BME280;12992;50.884;13.668;2023-04-30T10:08:06;98136.75;;;20.26;59.36
24962;BME280;12992;50.884;13.668;2023-04-30T10:10:36;98058.53;;;20.21;58.10
24962;BME280;12992;50.884;13.668;2023-04-30T10:13:03;98007.00;;;19.49;58.95
24962;BME280;12992;50.884;13.668;2023-04-30T10:15:36;98023.59;;;19.49;60.65
24962;BME280;12992;50.884;13.668;2023-04-30T10:18:04;97977.81;;;19.01;63.59
24962;BME280;12992;50.884;13.668;2023-04-30T10:20:34;97931.50;;;18.45;59.75
24962;BME280;12992;50.884;13.668;2023-04-30T10:23:01;97967.53;;;18.29;60.49
24962;BME280;12992;50.884;13.668;2023-04-30T10:25:27;98057.25;;;20.13;58.01
24962;BME280;12992;50.884;13.668;2023-04-30T10:27:53;98056.78;;;21.64;54.23
24962;BME280;12992;50.884;13.668;2023-04-30T10:30:20;97909.38;;;20.11;52.60
24962;BME280;12992;50.884;13.668;2023-04-30T10:35:45;97848.94;;;16.98;60.09
24962;BME280;12992;50.884;13.668;2023-04-30T10:38:20;97820.75;;;15.62;64.13
24962;BME280;12992;50.884;13.668;2023-04-30T10:40:47;97820.19;;;14.93;67.23
24962;BME280;12992;50.884;13.668;2023-04-30T10:43:12;97942.59;;;16.57;66.77
24962;BME280;12992;50.884;13.668;2023-04-30T10:45:42;98030.03;;;19.21;64.57
24962;BME280;12992;50.884;13.668;2023-04-30T10:48:08;98051.13;;;21.83;58.21
24962;BME280;12992;50.884;13.668;2023-04-30T10:50:39;97998.41;;;21.33;57.63
24962;BME280;12992;50.884;13.668;2023-04-30T10:53:06;97947.50;;;21.78;48.12
24962;BME280;12992;50.884;13.668;2023-04-30T10:55:31;97871.56;;;20.06;55.81
24962;BME280;12992;50.884;13.668;2023-04-30T10:57:57;97843.28;;;19.25;56.99
24962;BME280;12992;50.884;13.668;2023-04-30T11:00:25;97828.03;;;17.31;60.32
24962;BME280;12992;50.884;13.668;2023-04-30T11:02:55;97833.06;;;17.24;60.38
24962;BME280;12992;50.884;13.668;2023-04-30T11:05:33;97912.03;;;18.07;62.74
24962;BME280;12992;50.884;13.668;2023-04-30T11:07:59;97871.16;;;18.14;60.53
24962;BME280;12992;50.884;13.668;2023-04-30T11:10:27;97923.56;;;18.91;59.39
24962;BME280;12992;50.884;13.668;2023-04-30T11:12:56;97970.75;;;19.94;60.99
24962;BME280;12992;50.884;13.668;2023-04-30T11:15:25;98043.03;;;23.29;53.62
24962;BME280;12992;50.884;13.668;2023-04-30T11:17:55;98013.91;;;24.70;47.74
24962;BME280;12992;50.884;13.668;2023-04-30T11:20:23;97965.47;;;25.09;47.40
24962;BME280;12992;50.884;13.668;2023-04-30T11:23:07;97950.06;;;25.33;44.80
24962;BME280;12992;50.884;13.668;2023-04-30T11:25:46;97900.09;;;24.51;45.71
24962;BME280;12992;50.884;13.668;2023-04-30T11:28:38;97838.19;;;22.64;51.19
24962;BME280;12992;50.884;13.668;2023-04-30T11:31:04;97893.03;;;22.19;51.42
24962;BME280;12992;50.884;13.668;2023-04-30T11:33:30;97900.97;;;23.39;48.47
24962;BME280;12992;50.884;13.668;2023-04-30T11:35:58;97936.97;;;24.31;45.86
24962;BME280;12992;50.884;13.668;2023-04-30T11:38:27;97858.63;;;23.42;48.42
24962;BME280;12992;50.884;13.668;2023-04-30T11:40:53;97968.44;;;25.63;45.96
24962;BME280;12992;50.884;13.668;2023-04-30T11:46:05;97876.69;;;25.62;44.34
24962;BME280;12992;50.884;13.668;2023-04-30T11:48:36;97722.56;;;22.02;49.05
24962;BME280;12992;50.884;13.668;2023-04-30T11:51:03;97772.72;;;19.70;54.45
24962;BME280;12992;50.884;13.668;2023-04-30T11:53:29;97700.28;;;18.33;55.13
24962;BME280;12992;50.884;13.668;2023-04-30T11:55:55;97656.06;;;15.46;60.56
24962;BME280;12992;50.884;13.668;2023-04-30T11:58:20;97723.56;;;15.57;65.22
24962;BME280;12992;50.884;13.668;2023-04-30T12:00:46;97808.31;;;17.19;63.08
24962;BME280;12992;50.884;13.668;2023-04-30T12:03:13;97793.31;;;17.69;59.56
24962;BME280;12992;50.884;13.668;2023-04-30T12:05:40;97708.78;;;16.67;60.66
24962;BME280;12992;50.884;13.668;2023-04-30T12:08:06;97671.63;;;15.76;60.69
24962;BME280;12992;50.884;13.668;2023-04-30T12:10:33;97745.59;;;16.27;62.88
24962;BME280;12992;50.884;13.668;2023-04-30T12:12:58;97766.31;;;16.64;62.05
24962;BME280;12992;50.884;13.668;2023-04-30T12:15:25;97817.63;;;18.20;61.08
24962;BME280;12992;50.884;13.668;2023-04-30T12:17:55;97837.25;;;19.04;58.92
24962;BME280;12992;50.884;13.668;2023-04-30T12:20:22;97730.75;;;17.99;56.90
24962;BME280;12992;50.884;13.668;2023-04-30T12:22:49;97760.78;;;17.76;56.85
24962;BME280;12992;50.884;13.668;2023-04-30T12:25:16;97790.19;;;18.77;55.58
24962;BME280;12992;50.884;13.668;2023-04-30T12:27:46;97716.50;;;17.92;56.88
24962;BME280;12992;50.884;13.668;2023-04-30T12:30:12;97775.19;;;18.16;60.78
24962;BME280;12992;50.884;13.668;2023-04-30T12:32:42;97747.09;;;18.38;56.37
24962;BME280;12992;50.884;13.668;2023-04-30T12:35:13;97753.16;;;18.16;58.61
24962;BME280;12992;50.884;13.668;2023-04-30T12:37:44;97786.22;;;19.02;55.77
24962;BME280;12992;50.884;13.668;2023-04-30T12:40:11;97790.38;;;19.69;55.01
24962;BME280;12992;50.884;13.668;2023-04-30T12:42:37;97664.72;;;18.31;55.40
24962;BME280;12992;50.884;13.668;2023-04-30T12:45:02;97734.22;;;18.90;55.96
24962;BME280;12992;50.884;13.668;2023-04-30T12:47:28;97738.41;;;18.68;56.75
24962;BME280;12992;50.884;13.668;2023-04-30T12:49:54;97632.59;;;17.31;56.60
24962;BME280;12992;50.884;13.668;2023-04-30T12:52:23;97757.56;;;18.98;54.79
24962;BME280;12992;50.884;13.668;2023-04-30T12:54:48;97773.81;;;19.69;55.60
24962;BME280;12992;50.884;13.668;2023-04-30T12:57:14;97625.56;;;17.92;54.37
24962;BME280;12992;50.884;13.668;2023-04-30T12:59:55;97609.34;;;17.66;54.03
24962;BME280;12992;50.884;13.668;2023-04-30T13:02:23;97697.31;;;18.29;54.33
24962;BME280;12992;50.884;13.668;2023-04-30T13:04:49;97698.66;;;18.51;52.25